Latest Weather Observations for Cape Nelson

IDV60801

Issued at 9:02 am EST Tuesday 5 May 2015 (issued every 30 minutes, with the page automatically refreshed every 10 minutes)

About weather observations | Map of weather stations | Latest weather observations for VIC | Other Formats
Station Details ID: 090184 Name: CAPE NELSON LIGHTHOUSE Lat: -38.43 Lon: 141.54 Height: 45.4 m
Data from the previous 72 hours. | See also: Recent months at Cape Nelson
Date/Time
EST
Temp
°C
App
Temp
°C
Dew
Point
Rel
Hum
%
Delta-T
°C
Wind Press
QNH
hPa
Press
MSL
hPa
Rain
since 9 am
mm
Dir
 
Spd
km/h
Gust
km/h
Spd
kts
Gust
kts
05/09:00am 9.9 1.3 8.0 88 0.9 NW 43 59 23 32 996.2 996.2 10.2
05/08:30am 9.1 1.2 7.7 91 0.7 NW 39 57 21 31 995.9 995.9 10.2
05/08:03am 8.8 1.2 7.7 93 0.5 NNW 37 56 20 30 995.8 995.8 10.0
05/08:00am 8.8 0.9 7.7 93 0.5 NNW 39 56 21 30 995.7 995.7 10.0
05/07:44am 8.9 0.0 7.8 93 0.5 NW 44 63 24 34 996.2 996.2 10.0
05/07:30am 8.0 -3.5 6.9 93 0.5 WNW 57 96 31 52 996.9 996.9 9.4
05/07:21am 8.0 -0.6 6.3 89 0.8 NW 41 89 22 48 997.3 997.3 7.6
05/07:20am 10.1 2.8 8.9 92 0.6 NW 37 87 20 47 997.1 997.1 6.8
05/07:10am 10.4 4.6 9.3 93 0.5 NNW 30 48 16 26 995.9 995.9 6.6
05/07:00am 10.5 4.3 9.4 93 0.6 NNW 32 46 17 25 995.9 995.9 6.4
05/06:30am 10.5 4.4 9.6 94 0.5 NNW 32 46 17 25 995.8 995.8 6.4
05/06:00am 10.7 4.6 9.6 93 0.6 NW 32 50 17 27 996.1 996.1 6.2
05/05:33am 11.5 4.6 10.4 93 0.6 NW 37 56 20 30 995.9 995.9 5.6
05/05:30am 11.4 4.1 10.3 93 0.6 NW 39 56 21 30 996.0 996.0 5.6
05/05:00am 11.4 2.6 9.7 89 0.9 WNW 46 76 25 41 996.5 996.5 4.2
05/04:30am 12.5 4.6 10.7 89 0.9 NW 43 61 23 33 995.5 995.5 3.6
05/04:03am 13.1 5.8 11.7 91 0.7 NW 41 59 22 32 995.9 995.9 3.6
05/04:00am 13.1 5.5 11.7 91 0.8 NW 43 59 23 32 995.8 995.8 3.6
05/03:30am 14.0 7.6 11.9 87 1.1 NNW 37 56 20 30 995.8 995.8 1.8
05/03:22am 13.7 7.6 11.7 88 1.1 NNW 35 56 19 30 995.5 995.5 1.8
05/03:00am 13.7 9.5 12.3 91 0.8 NNW 26 33 14 18 996.2 996.2 1.8
05/02:40am 13.8 9.2 12.4 91 0.8 NNW 28 50 15 27 996.9 996.9 1.8
05/02:30am 13.8 8.8 12.2 90 0.9 NNW 30 41 16 22 996.5 996.5 1.8
05/02:00am 13.9 9.7 12.3 90 0.9 NNW 26 43 14 23 997.6 997.6 1.8
05/01:30am 14.6 6.1 11.9 84 1.5 NW 48 69 26 37 998.2 998.2 1.2
05/01:15am 16.6 9.7 11.7 73 2.7 NW 39 67 21 36 997.8 997.8 0.4
05/01:14am 16.7 10.2 11.6 72 2.8 NW 37 61 20 33 997.7 997.7 0.2
05/01:00am 17.7 12.4 9.8 60 4.2 NNW 28 48 15 26 997.3 997.3 0.0
05/12:50am 17.6 12.4 10.2 62 3.9 NNW 28 46 15 25 997.5 997.5 0.0
05/12:30am 17.2 11.0 10.1 63 3.8 N 33 48 18 26 997.3 997.3 0.0
05/12:00am 17.0 10.4 10.1 64 3.7 N 35 54 19 29 997.5 997.5 0.0
 
Date/Time
EST
Temp
°C
App
Temp
°C
Dew
Point
Rel
Hum
%
Delta-T
°C
Wind Press
QNH
hPa
Press
MSL
hPa
Rain
since 9 am
mm
Dir
 
Spd
km/h
Gust
km/h
Spd
kts
Gust
kts
04/11:39pm 16.6 10.1 10.5 67 3.2 N 35 54 19 29 998.1 998.1 0.0
04/11:30pm 17.2 10.2 10.1 63 3.8 N 37 54 20 29 998.2 998.2 0.0
04/11:00pm 17.2 10.2 10.1 63 3.8 N 37 57 20 31 998.7 998.7 0.0
04/10:30pm 17.4 11.2 10.1 62 3.9 N 33 52 18 28 999.4 999.4 0.0
04/10:00pm 17.3 10.8 10.4 64 3.7 N 35 54 19 29 999.9 999.9 0.0
04/09:43pm 17.2 11.2 10.8 66 3.4 N 33 52 18 28 1000.2 1000.2 0.0
04/09:30pm 17.7 11.3 10.6 63 3.8 N 35 50 19 27 1000.5 1000.5 0.0
04/09:00pm 19.0 12.3 9.5 54 5.1 N 35 61 19 33 1000.7 1000.7 0.0
04/08:54pm 18.6 12.4 9.4 55 4.9 N 32 54 17 29 1001.1 1001.1 0.0
04/08:30pm 18.0 11.9 9.9 59 4.3 NNW 32 44 17 24 1001.2 1001.2 0.0
04/08:00pm 20.1 12.8 8.8 48 6.0 N 37 65 20 35 1001.5 1001.5 0.0
04/07:32pm 19.5 13.2 9.1 51 5.5 N 32 50 17 27 1001.2 1001.2 0.0
04/07:30pm 19.8 13.7 9.7 52 5.4 N 32 46 17 25 1001.1 1001.1 0.0
04/07:00pm 19.1 13.8 8.4 50 5.6 N 26 37 14 20 1000.3 1000.3 0.0
04/06:30pm 19.1 14.9 8.4 50 5.6 N 20 32 11 17 1000.7 1000.7 0.0
04/06:00pm 19.5 13.5 8.8 50 5.6 N 30 43 16 23 1000.9 1000.9 0.0
04/05:30pm 19.8 14.3 9.1 50 5.6 N 28 39 15 21 1000.9 1000.9 0.0
04/05:00pm 20.4 14.2 9.3 49 5.9 NNE 32 52 17 28 1001.0 1001.0 0.0
04/04:30pm 20.9 14.7 9.5 48 6.1 NNE 32 50 17 27 1001.5 1001.5 0.0
04/04:22pm 21.0 14.8 9.3 47 6.2 N 32 50 17 27 1001.8 1001.8 0.0
04/04:00pm 21.3 16.0 9.9 48 6.2 NNE 28 43 15 23 1002.2 1002.2 0.0
04/03:30pm 21.2 17.3 10.7 51 5.8 N 22 37 12 20 1003.3 1003.3 0.0
04/03:00pm 20.0 15.6 10.4 54 5.2 N 24 41 13 22 1004.0 1004.0 0.0
04/02:30pm 21.3 16.3 11.1 52 5.6 N 28 43 15 23 1004.5 1004.4 0.0
04/02:00pm 20.6 16.5 11.5 56 5.1 N 24 37 13 20 1005.1 1005.0 0.0
04/01:30pm 20.5 16.6 12.0 58 4.8 N 24 33 13 18 1005.8 1005.7 0.0
04/01:00pm 19.6 15.7 10.9 57 4.8 N 22 35 12 19 1007.1 1007.0 0.0
04/12:30pm 19.3 15.5 11.3 60 4.4 N 22 39 12 21 1007.7 1007.6 0.0
04/12:00pm 18.4 13.6 11.5 64 3.8 N 28 41 15 22 1008.6 1008.6 0.0
04/11:30am 16.6 11.6 10.9 69 3.1 N 28 39 15 21 1008.9 1008.9 0.0
04/11:00am 16.1 10.2 10.4 69 3.0 N 32 50 17 27 1009.6 1009.6 0.0
04/10:45am 15.3 9.6 9.7 69 2.9 N 30 48 16 26 1010.0 1010.0 0.0
04/10:30am 16.4 10.6 10.7 69 3.0 N 32 48 17 26 1010.2 1010.2 0.0
04/10:00am 14.4 9.0 9.4 72 2.6 N 28 37 15 20 1010.5 1010.5 0.0
04/09:30am 14.9 9.6 9.7 71 2.7 N 28 41 15 22 1011.1 1011.1 0.0
04/09:00am 13.4 8.2 8.9 74 2.3 N 26 37 14 20 1011.7 1011.7 0.0
04/08:30am 12.4 7.5 8.5 77 1.9 N 24 37 13 20 1011.8 1011.8 0.0
04/08:00am 11.5 7.2 8.0 79 1.7 N 20 39 11 21 1012.1 1012.1 0.0
04/07:30am 11.3 6.3 8.0 80 1.6 N 24 35 13 19 1012.4 1012.4 0.0
04/07:00am 11.5 6.4 7.8 78 1.8 N 24 35 13 19 1012.7 1012.7 0.0
04/06:30am 11.7 7.4 7.8 77 1.9 N 20 28 11 15 1013.2 1013.2 0.0
04/06:00am 11.6 6.9 7.9 78 1.8 N 22 39 12 21 1013.7 1013.7 0.0
04/05:30am 11.4 6.7 7.9 79 1.7 N 22 32 12 17 1013.9 1013.9 0.0
04/05:00am 11.0 6.9 8.0 82 1.5 N 19 28 10 15 1013.7 1013.7 0.0
04/04:30am 10.8 6.2 8.2 84 1.3 N 22 28 12 15 1013.5 1013.5 0.0
04/04:00am 10.9 7.4 8.7 86 1.1 N 17 22 9 12 1014.2 1014.2 0.0
04/03:30am 10.7 7.6 9.0 89 0.8 N 15 22 8 12 1014.6 1014.6 0.0
04/03:00am 10.5 7.1 9.1 91 0.7 N 17 22 9 12 1014.8 1014.8 0.0
04/02:30am 10.5 7.1 9.3 92 0.6 NNE 17 24 9 13 1014.7 1014.7 0.0
04/02:00am 10.8 7.5 9.7 93 0.6 NNE 17 20 9 11 1015.1 1015.1 0.0
04/01:30am 11.2 8.0 10.1 93 0.6 NNE 17 20 9 11 1015.4 1015.4 0.0
04/01:00am 11.8 8.8 10.7 93 0.6 NE 17 24 9 13 1015.8 1015.8 0.0
04/12:30am 12.0 9.1 10.9 93 0.6 NNE 17 26 9 14 1016.4 1016.4 0.0
04/12:00am 11.8 9.2 10.7 93 0.6 NNE 15 20 8 11 1016.6 1016.6 0.0
 
Date/Time
EST
Temp
°C
App
Temp
°C
Dew
Point
Rel
Hum
%
Delta-T
°C
Wind Press
QNH
hPa
Press
MSL
hPa
Rain
since 9 am
mm
Dir
 
Spd
km/h
Gust
km/h
Spd
kts
Gust
kts
03/11:30pm 11.8 9.6 10.9 94 0.5 NNE 13 19 7 10 1017.0 1017.0 0.0
03/11:00pm 12.1 9.6 11.2 94 0.5 NNE 15 20 8 11 1017.1 1017.1 0.0
03/10:30pm 11.8 9.6 10.9 94 0.5 NNE 13 19 7 10 1017.5 1017.5 0.0
03/10:00pm 10.8 8.7 9.7 93 0.6 NNE 11 15 6 8 1017.5 1017.5 0.0
03/09:30pm 10.1 7.4 9.0 93 0.5 NNE 13 15 7 8 1017.5 1017.5 0.0
03/09:00pm 9.6 7.1 8.4 92 0.6 NNE 11 13 6 7 1017.8 1017.8 0.0
03/08:30pm 9.0 6.7 7.6 91 0.7 N 9 11 5 6 1018.1 1018.1 0.0
03/08:00pm 9.3 7.1 7.9 91 0.7 N 9 9 5 5 1018.3 1018.3 0.0
03/07:30pm 9.3 7.4 7.6 89 0.8 N 7 9 4 5 1018.1 1018.1 0.0
03/07:00pm 9.9 8.1 7.8 87 1.0 N 7 9 4 5 1017.9 1017.9 0.0
03/06:30pm 10.9 9.5 8.7 86 1.1 N 6 9 3 5 1018.2 1018.2 0.0
03/06:00pm 11.8 10.4 9.0 83 1.4 WNW 6 7 3 4 1017.9 1017.9 0.0
03/05:30pm 12.7 11.5 9.7 82 1.5 NW 6 7 3 4 1017.9 1017.9 0.0
03/05:00pm 13.7 12.3 10.9 83 1.5 W 9 11 5 6 1017.9 1017.9 0.0
03/04:30pm 13.8 12.1 11.3 85 1.3 NW 11 15 6 8 1018.2 1018.2 0.0
03/04:00pm 14.1 11.8 11.8 86 1.2 NW 15 20 8 11 1018.5 1018.5 0.0
03/03:30pm 14.7 12.6 11.3 80 1.8 WNW 13 24 7 13 1018.4 1018.4 0.0
03/03:00pm 14.6 12.4 10.8 78 2.0 W 13 20 7 11 1018.4 1018.4 0.0
03/02:30pm 14.6 12.1 11.2 80 1.8 WNW 15 20 8 11 1018.5 1018.5 0.0
03/02:00pm 14.4 12.4 11.4 82 1.6 W 13 20 7 11 1018.7 1018.7 0.0
03/01:30pm 14.9 12.4 12.2 84 1.5 NW 17 22 9 12 1018.8 1018.8 0.0
03/01:00pm 14.2 11.5 11.7 85 1.3 W 17 24 9 13 1019.2 1019.2 0.0
03/12:30pm 15.6 12.8 12.5 82 1.7 WNW 19 24 10 13 1019.2 1019.2 0.0
03/12:00pm 15.8 12.9 12.2 79 2.0 WNW 19 24 10 13 1019.5 1019.5 0.0
03/11:30am 16.2 13.2 12.7 80 1.9 NW 20 28 11 15 1019.5 1019.5 0.0
03/11:00am 15.8 13.0 12.5 81 1.8 WNW 19 24 10 13 1019.6 1019.6 0.0
03/10:30am 14.2 10.2 11.9 86 1.2 NW 24 37 13 20 1019.7 1019.7 0.0
03/10:00am 15.5 12.6 13.0 85 1.4 NW 20 26 11 14 1019.7 1019.7 0.0
03/09:30am 13.9 11.8 12.3 90 0.9 NW 15 20 8 11 1019.8 1019.8 0.0
03/09:00am 13.9 11.3 11.9 88 1.1 W 17 24 9 13 1019.7 1019.7 2.6
03/08:30am 13.7 11.8 11.9 89 1.0 WNW 13 19 7 10 1019.4 1019.4 2.6
03/08:00am 14.1 11.5 12.0 87 1.1 WNW 17 28 9 15 1019.1 1019.1 2.4
03/07:30am 13.9 11.3 11.9 88 1.1 W 17 28 9 15 1018.9 1018.9 2.4
03/07:00am 13.5 12.5 12.2 92 0.7 NNE 9 13 5 7 1018.5 1018.5 2.4
03/06:30am 13.3 11.8 11.9 91 0.8 NW 11 22 6 12 1018.2 1018.2 2.4
03/06:00am 13.6 11.8 12.2 91 0.8 NNW 13 20 7 11 1018.1 1018.1 2.4
03/05:30am 14.1 10.0 11.4 84 1.4 W 24 32 13 17 1017.7 1017.7 2.4
03/05:00am 14.1 9.7 11.8 86 1.2 W 26 33 14 18 1017.5 1017.5 2.4
03/04:30am 14.3 10.0 12.0 86 1.2 W 26 32 14 17 1017.3 1017.3 2.4
03/04:00am 14.0 11.7 11.9 87 1.1 W 15 22 8 12 1017.4 1017.4 2.4
03/03:30am 14.1 9.4 12.1 88 1.1 W 28 39 15 21 1017.3 1017.3 2.4
03/03:00am 14.0 11.1 12.4 90 0.9 W 19 30 10 16 1017.3 1017.3 2.4
03/02:30am 13.7 10.8 12.8 94 0.5 WNW 20 33 11 18 1017.2 1017.2 2.4
03/02:00am 13.6 10.3 12.7 94 0.5 NW 22 30 12 16 1017.2 1017.2 2.4
03/01:30am 13.7 10.3 12.6 93 0.6 NW 22 32 12 17 1017.2 1017.2 2.2
03/01:00am 13.8 10.8 12.5 92 0.7 NW 20 28 11 15 1017.0 1017.0 2.2
03/12:30am 14.4 10.3 12.8 90 0.9 WNW 26 35 14 19 1016.8 1016.8 2.2
03/12:00am 14.5 10.1 12.9 90 0.9 WNW 28 37 15 20 1017.1 1017.1 2.2
 
Date/Time
EST
Temp
°C
App
Temp
°C
Dew
Point
Rel
Hum
%
Delta-T
°C
Wind Press
QNH
hPa
Press
MSL
hPa
Rain
since 9 am
mm
Dir
 
Spd
km/h
Gust
km/h
Spd
kts
Gust
kts
02/11:30pm 14.5 10.7 12.5 88 1.1 WNW 24 35 13 19 1017.1 1017.1 1.8
02/11:00pm 14.5 10.3 12.5 88 1.1 WNW 26 33 14 18 1017.1 1017.1 1.8
02/10:30pm 14.3 11.3 12.7 90 0.9 WNW 20 32 11 17 1016.9 1016.9 1.8
02/10:00pm 14.4 11.0 12.6 89 1.0 NW 22 30 12 16 1016.6 1016.6 1.8
02/09:30pm 14.5 11.5 12.5 88 1.1 NW 20 28 11 15 1016.6 1016.6 1.8
02/09:00pm 14.6 11.7 12.8 89 1.0 WNW 20 28 11 15 1016.4 1016.4 1.8
02/08:30pm 14.3 10.5 12.3 88 1.1 WNW 24 33 13 18 1016.2 1016.2 1.8
02/08:00pm 14.7 10.6 12.6 87 1.1 WNW 26 37 14 20 1016.0 1016.0 1.8
02/07:30pm 14.9 9.6 12.6 86 1.3 WNW 32 41 17 22 1015.8 1015.8 1.8
02/07:00pm 14.9 10.1 12.8 87 1.2 WNW 30 39 16 21 1015.4 1015.4 1.8
02/06:30pm 14.6 10.9 12.8 89 1.0 NW 24 33 13 18 1014.9 1014.9 1.8
02/06:00pm 15.2 10.5 13.2 88 1.1 NW 30 43 16 23 1014.6 1014.6 1.8
02/05:30pm 15.2 10.8 12.9 86 1.3 NW 28 39 15 21 1014.2 1014.2 1.8
02/05:00pm 15.3 10.5 12.8 85 1.4 NW 30 41 16 22 1014.0 1014.0 1.8
02/04:30pm 15.8 10.6 12.7 82 1.7 NW 32 46 17 25 1014.1 1014.1 1.8
02/04:17pm 15.7 10.4 12.6 82 1.7 NW 32 50 17 27 1014.0 1014.0 1.8
02/04:00pm 16.2 10.7 12.4 78 2.1 NW 33 50 18 27 1013.8 1013.8 1.8
02/03:46pm 16.5 11.2 12.5 77 2.2 NW 32 50 17 27 1013.6 1013.6 1.8
02/03:30pm 17.0 12.6 12.9 77 2.3 NW 28 39 15 21 1013.5 1013.5 1.8
02/03:00pm 17.1 12.4 13.2 78 2.2 NW 30 43 16 23 1013.1 1013.1 1.8
02/02:30pm 16.8 11.8 13.3 80 2.0 NW 32 41 17 22 1013.5 1013.5 1.8
02/02:00pm 16.2 11.7 13.9 86 1.3 NW 30 39 16 21 1013.5 1013.5 1.8
02/01:30pm 15.5 10.7 14.0 91 0.8 NW 32 48 17 26 1013.6 1013.6 1.8
02/01:00pm 14.3 9.6 13.2 93 0.6 NW 30 44 16 24 1013.6 1013.6 1.8
02/12:30pm 14.1 8.9 12.7 91 0.8 NW 32 46 17 25 1014.1 1014.1 1.2
02/12:00pm 13.8 7.5 12.2 90 0.9 NW 37 57 20 31 1014.3 1014.3 0.8
02/11:32am 13.6 8.1 11.8 89 1.0 NW 32 50 17 27 1014.4 1014.4 0.8
02/11:30am 13.4 7.6 11.6 89 1.0 NW 33 50 18 27 1014.4 1014.4 0.8
02/11:09am 13.7 7.9 11.4 86 1.2 NW 33 52 18 28 1014.5 1014.5 0.4
02/11:00am 14.2 8.1 11.7 85 1.3 NW 35 50 19 27 1014.5 1014.5 0.4
02/10:36am 16.6 11.0 10.0 65 3.5 NW 30 48 16 26 1014.3 1014.3 0.0
02/10:30am 16.6 9.9 9.8 64 3.6 NW 35 48 19 26 1014.3 1014.3 0.0
02/10:04am 17.1 11.8 10.0 63 3.8 NNW 28 46 15 25 1014.1 1014.1 0.0
02/10:00am 17.3 11.7 10.0 62 3.9 NNW 30 46 16 25 1014.1 1014.1 0.0
02/09:30am 15.6 10.1 10.4 71 2.7 NNW 30 43 16 23 1014.2 1014.2 0.0

Other Formats:

Comma delimited format used in spreadsheet applications
http://www.bom.gov.au/fwo/IDV60801/IDV60801.94826.axf

JavaScript Object Notation format (JSON) in row-major order
http://www.bom.gov.au/fwo/IDV60801/IDV60801.94826.json